Weather forecast for Kursk, towing flights (Курск)

Russia, 209 m
N51.642, E36.228


Sounding

Red line — air temperature ˚C.
Blue line — thermal bubble temperature ˚C.
Green line — dew point temperature ˚C.
Wind speed is in meters per second.

Table forecast

GFS 0.25˚ model

temp. wind gust humid. clouds prec. press. hpbl
Mon10 00:00 18 28.0 nne 1 2 79 0 0.0 1015 75
03:00 17 3.0 n 1 1 83 0 0.0 1015 55
06:00 17 10.0 n 2 2 86 0 0.0 1015 66
09:00 21 18.0 nne 2 3 70 6 0.1 1016 475
12:00 25 31.0 nne 3 3 50 0 0.4 1015 1447
15:00 25 33.0 nne 2 2 49 27 0.4 1014 1597
18:00 23 27.0 nne 2 2 59 99 0.3 1014 458
21:00 20 59.0 ene 2 3 67 99 0.6 1014 113
 
Tue11 00:00 18 34.0 ne 1 2 70 100 0.0 1014 57
03:00 17 17.0 nne 1 1 73 100 0.0 1014 31
06:00 17 13.0 nne 1 1 75 9 0.0 1014 30
09:00 22 288.0 wnw 1 1 57 23 0.0 1013 387
12:00 25 314.0 nw 2 3 46 3 0.0 1013 1586
15:00 27 307.0 nw 2 3 43 16 0.0 1012 1847
18:00 24 270.0 w 3 5 59 100 1.3 1012 427
21:00 19 16.0 nne 5 11 76 91 1.4 1012 445
 
Wed12 00:00 16 20.0 nne 5 10 78 73 0.0 1012 389
03:00 13 16.0 nne 4 9 79 37 0.0 1013 337
06:00 12 1.0 n 4 8 87 1 0.0 1013 294
09:00 16 359.0 n 4 6 70 10 0.0 1013 739
12:00 19 351.0 n 5 6 55 6 0.1 1014 1388
15:00 20 356.0 n 5 7 55 17 0.3 1014 1403
18:00 18 348.0 nnw 5 7 61 2 0.1 1014 1117
21:00 15 356.0 n 4 9 78 1 0.3 1015 449
 
Thu13 00:00 13 345.0 nnw 3 8 83 0 0.0 1015 359
03:00 12 333.0 nnw 4 8 87 0 0.0 1015 299
06:00 11 334.0 nnw 4 9 87 0 0.0 1015 337
09:00 15 341.0 nnw 4 7 72 17 0.0 1015 610
12:00 16 350.0 n 5 6 69 100 0.0 1015 946
15:00 16 356.0 n 4 6 69 100 0.1 1014 532
18:00 16 350.0 n 4 7 70 100 0.6 1015 507
21:00 13 355.0 n 4 8 75 83 0.8 1016 329
 
Fri14 00:00 12 356.0 n 3 7 77 24 0.0 1016 263
03:00 10 348.0 nnw 3 6 78 18 0.0 1017 168
06:00 9 347.0 nnw 3 6 83 0 0.0 1017 197
09:00 14 357.0 n 4 7 68 0 0.0 1017 616
12:00 17 352.0 n 4 6 51 0 0.1 1017 1625
15:00 17 352.0 n 4 6 51 30 0.2 1016 1544
18:00 17 332.0 nnw 4 6 56 27 0.0 1016 1345
21:00 14 331.0 nnw 3 5 68 14 0.1 1017 187
 

0.015 s